createdAt,value
2018-07-01T00:01:37.115Z,72.45
2018-07-01T00:04:07.172Z,73.24
2018-07-01T00:06:36.916Z,73.04
2018-07-01T00:09:07.876Z,74.05
2018-07-01T00:11:37.689Z,74.16
2018-07-01T00:14:07.124Z,75.19
2018-07-01T00:16:36.617Z,75.67
2018-07-01T00:19:06.344Z,75.39
2018-07-01T00:21:36.059Z,75.97
2018-07-01T00:24:05.801Z,76.20
2018-07-01T00:26:35.263Z,76.17
2018-07-01T00:29:05.228Z,76.19
2018-07-01T00:31:34.668Z,76.30
2018-07-01T00:34:04.427Z,76.89
2018-07-01T00:36:34.167Z,77.45
2018-07-01T00:39:03.660Z,77.60
2018-07-01T00:41:33.439Z,77.12
2018-07-01T00:44:03.566Z,78.30
2018-07-01T00:46:33.288Z,78.23
2018-07-01T00:49:03.044Z,77.97
2018-07-01T00:51:32.748Z,78.24
2018-07-01T00:54:02.443Z,79.08
2018-07-01T00:56:32.912Z,78.64
2018-07-01T00:59:02.361Z,79.45
2018-07-01T01:01:32.114Z,79.42
2018-07-01T01:04:01.604Z,80.10
2018-07-01T01:06:31.140Z,79.45
2018-07-01T01:09:00.863Z,79.87
2018-07-01T01:11:30.432Z,80.07
2018-07-01T01:14:00.196Z,80.28
2018-07-01T01:16:29.967Z,80.35
2018-07-01T01:18:59.735Z,80.75
2018-07-01T01:21:29.423Z,80.80
2018-07-01T01:23:59.292Z,80.56
2018-07-01T01:26:28.801Z,80.97
2018-07-01T01:28:58.567Z,81.34
2018-07-01T01:31:28.316Z,81.53
2018-07-01T01:33:58.074Z,81.46
2018-07-01T01:36:29.891Z,81.55
2018-07-01T01:39:02.004Z,81.37
2018-07-01T01:41:36.674Z,81.48
2018-07-01T01:44:11.088Z,81.08
2018-07-01T01:46:47.023Z,81.24
2018-07-01T01:49:23.969Z,81.62
2018-07-01T01:52:00.895Z,81.51
2018-07-01T01:54:34.187Z,81.69
2018-07-01T01:57:09.295Z,81.44
2018-07-01T01:59:47.953Z,81.05
2018-07-01T02:02:24.775Z,80.60
2018-07-01T02:04:57.795Z,80.70
2018-07-01T02:07:32.783Z,80.07
2018-07-01T02:10:02.540Z,80.57
2018-07-01T02:12:32.279Z,80.74
2018-07-01T02:15:07.897Z,80.37
2018-07-01T02:17:43.275Z,80.31
2018-07-01T02:20:13.680Z,79.76
2018-07-01T02:22:47.547Z,80.24
2018-07-01T02:25:19.977Z,80.18
2018-07-01T02:27:49.784Z,79.81
2018-07-01T02:30:19.524Z,80.26
2018-07-01T02:32:49.244Z,80.23
2018-07-01T02:35:19.125Z,81.10
2018-07-01T02:37:48.987Z,81.00
2018-07-01T02:40:18.988Z,81.94
2018-07-01T02:42:48.743Z,81.14
2018-07-01T02:45:18.538Z,81.30
2018-07-01T02:47:48.372Z,81.70
2018-07-01T02:50:19.085Z,81.21
2018-07-01T02:52:48.904Z,81.31
2018-07-01T02:55:18.500Z,81.19
2018-07-01T02:57:48.399Z,81.63
2018-07-01T03:00:18.121Z,81.21
2018-07-01T03:02:47.970Z,81.35
2018-07-01T03:05:17.944Z,81.60
2018-07-01T03:07:48.727Z,81.91
2018-07-01T03:10:19.195Z,81.07
2018-07-01T03:12:48.717Z,81.21
2018-07-01T03:15:24.989Z,80.61
2018-07-01T03:17:54.909Z,81.06
2018-07-01T03:20:24.356Z,80.14
2018-07-01T03:22:55.529Z,80.60
2018-07-01T03:25:25.400Z,79.99
2018-07-01T03:27:55.653Z,81.00
2018-07-01T03:30:25.478Z,80.80
2018-07-01T03:32:55.395Z,80.46
2018-07-01T03:35:25.316Z,80.41
2018-07-01T03:37:55.191Z,80.11
2018-07-01T03:40:24.975Z,80.03
2018-07-01T03:42:54.684Z,80.15
2018-07-01T03:45:24.392Z,78.68
2018-07-01T03:47:54.140Z,78.98
2018-07-01T03:50:24.067Z,78.07
2018-07-01T03:52:53.950Z,76.75
2018-07-01T03:55:23.856Z,76.69
2018-07-01T03:57:53.668Z,76.89
2018-07-01T04:00:23.536Z,76.52
2018-07-01T04:02:53.758Z,75.68
2018-07-01T04:05:23.532Z,75.09
2018-07-01T04:07:53.256Z,75.50
2018-07-01T04:10:23.016Z,74.65
2018-07-01T04:12:52.768Z,74.44
2018-07-01T04:15:22.560Z,73.62
2018-07-01T04:17:52.315Z,72.50
2018-07-01T04:20:22.388Z,72.88
2018-07-01T04:22:52.171Z,72.01
2018-07-01T04:25:21.876Z,70.79
2018-07-01T04:27:51.600Z,69.92
2018-07-01T04:30:21.359Z,68.85
2018-07-01T04:32:51.149Z,68.95
2018-07-01T04:35:20.884Z,67.57
2018-07-01T04:37:50.681Z,66.58
2018-07-01T04:40:20.448Z,67.75
2018-07-01T04:42:49.920Z,66.93
2018-07-01T04:45:19.676Z,67.00
2018-07-01T04:47:49.151Z,66.22
2018-07-01T04:50:18.596Z,66.70
2018-07-01T04:52:48.316Z,65.62
2018-07-01T04:55:18.154Z,64.58
2018-07-01T04:57:48.127Z,64.02
2018-07-01T05:00:17.919Z,63.76
2018-07-01T05:02:47.667Z,63.07
2018-07-01T05:05:17.524Z,61.73
2018-07-01T05:07:47.358Z,60.01
2018-07-01T05:10:17.108Z,58.69
2018-07-01T05:12:46.872Z,55.16
2018-07-01T05:15:16.384Z,50.20
2018-07-01T05:17:45.844Z,46.20
2018-07-01T05:20:15.628Z,42.58
2018-07-01T05:22:45.344Z,39.75
2018-07-01T05:25:15.480Z,37.95
2018-07-01T05:27:45.009Z,36.12
2018-07-01T05:30:14.717Z,37.50
2018-07-01T05:32:44.412Z,37.03
2018-07-01T05:35:14.488Z,37.10
2018-07-01T05:37:44.239Z,37.51
2018-07-01T05:40:13.690Z,38.09
2018-07-01T05:42:43.439Z,37.06
2018-07-01T05:45:13.155Z,35.47
2018-07-01T05:47:42.902Z,34.52
2018-07-01T05:50:13.228Z,32.78
2018-07-01T05:52:43.579Z,29.57
2018-07-01T05:55:14.212Z,28.61
2018-07-01T05:57:44.493Z,26.50
2018-07-01T06:00:15.305Z,26.39
2018-07-01T06:02:45.319Z,25.28
2018-07-01T06:05:15.697Z,24.43
2018-07-01T06:07:46.386Z,23.89
2018-07-01T06:10:16.492Z,23.53
2018-07-01T06:12:47.146Z,22.48
2018-07-01T06:15:17.461Z,22.50
2018-07-01T06:17:47.679Z,22.39
2018-07-01T06:20:17.980Z,21.70
2018-07-01T06:22:48.268Z,23.61
2018-07-01T06:25:18.623Z,24.12
2018-07-01T06:27:55.947Z,24.48
2018-07-01T06:30:26.907Z,24.62
2018-07-01T06:32:57.893Z,23.62
2018-07-01T06:35:29.060Z,23.01
2018-07-01T06:37:59.390Z,22.84
2018-07-01T06:40:30.108Z,20.86
2018-07-01T06:43:00.432Z,21.49
2018-07-01T06:45:31.121Z,21.06
2018-07-01T06:48:01.452Z,19.91
2018-07-01T06:50:31.756Z,20.44
2018-07-01T06:53:01.813Z,21.05
2018-07-01T06:55:32.080Z,21.38
2018-07-01T06:58:02.418Z,21.95
2018-07-01T07:00:32.764Z,22.51
2018-07-01T07:03:02.805Z,21.47
2018-07-01T07:05:33.116Z,21.41
2018-07-01T07:08:03.694Z,20.25
2018-07-01T07:10:35.445Z,19.92
2018-07-01T07:13:05.887Z,19.99
2018-07-01T07:15:36.189Z,20.25
2018-07-01T07:18:06.536Z,20.01
2018-07-01T07:20:36.601Z,20.22
2018-07-01T07:23:06.967Z,20.42
2018-07-01T07:25:37.265Z,19.88
2018-07-01T07:28:07.577Z,20.99
2018-07-01T07:30:37.837Z,22.54
2018-07-01T07:33:08.176Z,22.83
2018-07-01T07:35:38.684Z,22.83
2018-07-01T07:38:11.023Z,23.12
2018-07-01T07:40:41.297Z,24.38
2018-07-01T07:43:12.233Z,23.72
2018-07-01T07:45:43.538Z,23.09
2018-07-01T07:48:14.222Z,20.57
2018-07-01T07:50:44.519Z,21.20
2018-07-01T07:53:14.647Z,21.97
2018-07-01T07:55:44.940Z,23.15
2018-07-01T07:58:15.284Z,24.48
2018-07-01T08:00:45.611Z,24.36
2018-07-01T08:03:15.925Z,25.65
2018-07-01T08:05:46.321Z,25.35
2018-07-01T08:08:16.660Z,24.40
2018-07-01T08:10:46.961Z,24.76
2018-07-01T08:13:17.239Z,25.55
2018-07-01T08:15:47.628Z,28.09
2018-07-01T08:18:17.798Z,29.90
2018-07-01T08:20:48.348Z,30.51
2018-07-01T08:23:19.146Z,27.69
2018-07-01T08:25:49.598Z,24.39
2018-07-01T08:28:19.899Z,23.38
2018-07-01T08:30:50.356Z,21.71
2018-07-01T08:33:21.059Z,20.84
2018-07-01T08:35:51.417Z,20.28
2018-07-01T08:38:21.723Z,21.43
2018-07-01T08:40:52.761Z,22.26
2018-07-01T08:43:22.831Z,23.39
2018-07-01T08:45:53.188Z,25.50
2018-07-01T08:48:23.631Z,27.96
2018-07-01T08:50:54.486Z,29.33
2018-07-01T08:53:25.327Z,29.04
2018-07-01T08:55:55.930Z,28.97
2018-07-01T08:58:26.523Z,27.67
2018-07-01T09:00:57.009Z,27.39
2018-07-01T09:03:27.321Z,29.14
2018-07-01T09:05:57.797Z,32.34
2018-07-01T09:08:28.213Z,33.96
2018-07-01T09:10:58.741Z,35.43
2018-07-01T09:13:29.120Z,36.54
2018-07-01T09:16:23.926Z,38.01
2018-07-01T09:18:54.502Z,38.82
2018-07-01T09:21:25.023Z,38.59
2018-07-01T09:23:55.520Z,38.92
2018-07-01T09:26:26.036Z,39.98
2018-07-01T09:28:56.834Z,37.08
2018-07-01T09:31:27.253Z,32.01
2018-07-01T09:33:57.563Z,30.66
2018-07-01T09:36:27.928Z,29.78
2018-07-01T09:38:58.365Z,32.95
2018-07-01T09:41:28.770Z,34.77
2018-07-01T09:43:59.099Z,37.58
2018-07-01T09:46:29.527Z,41.00
2018-07-01T09:48:59.540Z,42.90
2018-07-01T09:51:29.916Z,44.80
2018-07-01T09:54:12.444Z,46.75
2018-07-01T09:57:01.044Z,49.84
2018-07-01T09:59:37.072Z,51.83
2018-07-01T10:02:06.844Z,51.25
2018-07-01T10:05:01.804Z,50.88
2018-07-01T10:07:37.908Z,46.82
2018-07-01T10:10:08.340Z,44.19
2018-07-01T10:12:38.731Z,43.76
2018-07-01T10:15:08.864Z,41.69
2018-07-01T10:17:38.616Z,39.92
2018-07-01T10:20:08.348Z,39.45
2018-07-01T10:22:38.721Z,38.11
2018-07-01T10:25:09.077Z,36.44
2018-07-01T10:27:39.424Z,35.95
2018-07-01T10:30:10.132Z,35.38
2018-07-01T10:32:40.964Z,34.40
2018-07-01T10:35:11.437Z,34.78
2018-07-01T10:37:41.808Z,36.06
2018-07-01T10:40:12.191Z,36.30
2018-07-01T10:42:42.176Z,38.92
2018-07-01T10:45:12.585Z,40.35
2018-07-01T10:47:42.394Z,45.15
2018-07-01T10:50:12.197Z,47.45
2018-07-01T10:52:41.949Z,47.74
2018-07-01T10:55:11.714Z,44.24
2018-07-01T10:57:41.752Z,41.17
2018-07-01T11:00:12.186Z,38.36
2018-07-01T11:02:41.928Z,37.58
2018-07-01T11:05:11.664Z,38.09
2018-07-01T11:07:42.008Z,37.73
2018-07-01T11:10:11.726Z,37.81
2018-07-01T11:12:42.096Z,38.62
2018-07-01T11:15:12.395Z,35.13
2018-07-01T11:17:42.755Z,34.83
2018-07-01T11:20:13.139Z,34.37
2018-07-01T11:22:43.925Z,32.88
2018-07-01T11:25:14.313Z,31.95
2018-07-01T11:27:44.663Z,32.56
2018-07-01T11:30:15.028Z,33.58
2018-07-01T11:32:45.386Z,35.00
2018-07-01T11:35:22.592Z,35.79
2018-07-01T11:37:53.551Z,34.80
2018-07-01T11:40:24.613Z,33.79
2018-07-01T11:42:55.595Z,33.55
2018-07-01T11:45:26.396Z,32.64
2018-07-01T11:47:56.929Z,33.55
2018-07-01T11:50:26.759Z,34.43
2018-07-01T11:52:56.513Z,36.22
2018-07-01T11:55:26.287Z,34.87
2018-07-01T11:57:56.033Z,34.75
2018-07-01T12:00:26.591Z,33.89
2018-07-01T12:02:57.507Z,34.90
2018-07-01T12:05:28.107Z,34.58
2018-07-01T12:07:58.500Z,33.96
2018-07-01T12:10:28.896Z,41.95
2018-07-01T12:12:58.756Z,49.57
2018-07-01T12:15:28.601Z,55.54
2018-07-01T12:17:58.361Z,65.89
2018-07-01T12:20:28.231Z,67.43
2018-07-01T12:22:58.034Z,64.87
2018-07-01T12:25:27.832Z,65.22
2018-07-01T12:27:58.561Z,66.29
2018-07-01T12:30:28.385Z,62.74
2018-07-01T12:32:58.148Z,63.70
2018-07-01T12:35:27.920Z,63.46
2018-07-01T12:37:57.715Z,63.15
2018-07-01T12:40:27.847Z,61.36
2018-07-01T12:42:57.621Z,60.47
2018-07-01T12:45:27.387Z,59.87
2018-07-01T12:47:57.188Z,60.60
2018-07-01T12:50:26.961Z,59.62
2018-07-01T12:52:56.770Z,59.35
2018-07-01T12:55:26.568Z,60.31
2018-07-01T12:57:56.336Z,57.37
2018-07-01T13:00:26.192Z,57.00
2018-07-01T13:02:55.963Z,56.09
2018-07-01T13:05:26.086Z,52.41
2018-07-01T13:07:55.862Z,51.02
2018-07-01T13:10:25.613Z,51.42
2018-07-01T13:12:55.731Z,52.56
2018-07-01T13:15:25.504Z,49.63
2018-07-01T13:17:55.450Z,50.19
2018-07-01T13:20:25.158Z,46.21
2018-07-01T13:22:55.128Z,45.90
2018-07-01T13:25:24.875Z,44.63
2018-07-01T13:27:54.596Z,44.70
2018-07-01T13:30:24.411Z,44.16
2018-07-01T13:32:54.132Z,42.50
2018-07-01T13:35:23.840Z,42.67
2018-07-01T13:37:53.924Z,40.76
2018-07-01T13:40:23.667Z,40.37
2018-07-01T13:42:53.456Z,40.43
2018-07-01T13:45:23.396Z,40.67
2018-07-01T13:47:52.891Z,41.25
2018-07-01T13:50:22.607Z,41.72
2018-07-01T13:52:52.315Z,41.84
2018-07-01T13:55:22.082Z,40.63
2018-07-01T13:57:51.825Z,40.80
2018-07-01T14:00:21.596Z,40.69
2018-07-01T14:02:51.312Z,41.28
2018-07-01T14:05:21.092Z,40.69
2018-07-01T14:07:50.896Z,40.56
2018-07-01T14:10:20.743Z,39.73
2018-07-01T14:12:50.499Z,40.47
2018-07-01T14:15:20.315Z,40.27
2018-07-01T14:17:50.060Z,38.43
2018-07-01T14:20:20.153Z,38.98
2018-07-01T14:22:49.928Z,39.37
2018-07-01T14:25:19.684Z,40.07
2018-07-01T14:27:49.423Z,39.21
2018-07-01T14:30:19.895Z,39.13
2018-07-01T14:32:49.793Z,37.69
2018-07-01T14:35:19.668Z,38.39
2018-07-01T14:37:49.928Z,37.77
2018-07-01T14:40:19.692Z,37.65
2018-07-01T14:42:49.496Z,38.40
2018-07-01T14:45:20.084Z,38.71
2018-07-01T14:47:49.878Z,38.17
2018-07-01T14:50:19.656Z,38.88
2018-07-01T14:52:49.370Z,39.40
2018-07-01T14:55:19.125Z,39.40
2018-07-01T14:57:48.837Z,40.27
2018-07-01T15:00:18.837Z,40.23
2018-07-01T15:02:48.535Z,39.53
2018-07-01T15:05:18.270Z,40.63
2018-07-01T15:07:48.079Z,40.63
2018-07-01T15:10:17.878Z,40.44
2018-07-01T15:12:47.636Z,40.53
2018-07-01T15:15:17.360Z,40.52
2018-07-01T15:17:46.899Z,40.86
2018-07-01T15:20:16.898Z,40.32
2018-07-01T15:22:46.622Z,41.00
2018-07-01T15:25:16.418Z,41.32
2018-07-01T15:27:46.135Z,41.33
2018-07-01T15:30:16.113Z,40.46
2018-07-01T15:32:45.888Z,40.37
2018-07-01T15:35:15.627Z,40.24
2018-07-01T15:37:45.372Z,39.90
2018-07-01T15:40:15.266Z,40.12
2018-07-01T15:42:45.537Z,38.99
2018-07-01T15:45:15.275Z,37.75
2018-07-01T15:47:45.009Z,38.35
2018-07-01T15:50:14.468Z,39.20
2018-07-01T15:52:44.421Z,39.06
2018-07-01T15:55:14.144Z,39.88
2018-07-01T15:57:43.947Z,40.12
2018-07-01T16:00:13.651Z,40.20
2018-07-01T16:02:43.750Z,40.66
2018-07-01T16:05:13.445Z,40.68
2018-07-01T16:07:43.144Z,41.36
2018-07-01T16:10:12.936Z,41.23
2018-07-01T16:12:42.751Z,41.33
2018-07-01T16:15:12.537Z,41.43
2018-07-01T16:17:42.309Z,42.12
2018-07-01T16:20:12.246Z,41.98
2018-07-01T16:22:41.988Z,42.34
2018-07-01T16:25:16.948Z,41.86
2018-07-01T16:27:52.099Z,42.07
2018-07-01T16:30:21.907Z,42.38
2018-07-01T16:32:51.615Z,41.43
2018-07-01T16:35:21.365Z,42.37
2018-07-01T16:37:51.089Z,42.49
2018-07-01T16:40:20.859Z,42.19
2018-07-01T16:42:50.570Z,41.82
2018-07-01T16:45:20.301Z,42.44
2018-07-01T16:47:50.016Z,42.33
2018-07-01T16:50:19.763Z,42.60
2018-07-01T16:52:49.515Z,43.39
2018-07-01T16:55:18.973Z,43.56
2018-07-01T16:57:48.684Z,43.89
2018-07-01T17:00:18.412Z,44.09
2018-07-01T17:02:48.265Z,43.95
2018-07-01T17:05:18.090Z,44.24
2018-07-01T17:07:47.987Z,44.41
2018-07-01T17:10:17.696Z,44.56
2018-07-01T17:12:47.424Z,45.45
2018-07-01T17:15:17.239Z,45.26
2018-07-01T17:17:46.963Z,44.99
2018-07-01T17:20:16.659Z,45.30
2018-07-01T17:22:46.369Z,46.07
2018-07-01T17:25:16.080Z,46.63
2018-07-01T17:27:45.804Z,44.91
2018-07-01T17:30:15.624Z,44.98
2018-07-01T17:32:50.784Z,46.34
2018-07-01T17:35:20.599Z,46.81
2018-07-01T17:37:50.482Z,46.41
2018-07-01T17:40:20.230Z,47.04
2018-07-01T17:42:49.991Z,46.79
2018-07-01T17:45:19.947Z,46.41
2018-07-01T17:47:49.704Z,47.83
2018-07-01T17:50:19.422Z,47.41
2018-07-01T17:52:49.136Z,47.03
2018-07-01T17:55:19.144Z,47.86
2018-07-01T17:57:48.911Z,46.63
2018-07-01T18:00:18.645Z,46.15
2018-07-01T18:02:48.455Z,46.74
2018-07-01T18:05:18.297Z,46.91
2018-07-01T18:07:48.057Z,47.13
2018-07-01T18:10:17.779Z,46.73
2018-07-01T18:12:47.513Z,47.81
2018-07-01T18:15:17.219Z,47.94
2018-07-01T18:17:47.075Z,48.06
2018-07-01T18:20:18.017Z,48.83
2018-07-01T18:23:18.231Z,48.06
2018-07-01T18:25:17.735Z,48.58
2018-07-01T18:27:56.130Z,50.80
2018-07-01T18:30:17.431Z,49.72
2018-07-01T18:32:47.203Z,49.32
2018-07-01T18:35:17.328Z,49.59
2018-07-01T18:37:47.121Z,49.93
2018-07-01T18:40:16.924Z,51.03
2018-07-01T18:42:46.662Z,51.00
2018-07-01T18:45:16.700Z,50.53
2018-07-01T18:47:46.413Z,50.67
2018-07-01T18:50:16.227Z,51.26
2018-07-01T18:52:45.961Z,51.78
2018-07-01T18:55:15.759Z,52.00
2018-07-01T18:57:45.577Z,52.78
2018-07-01T19:00:15.744Z,51.23
2018-07-01T19:02:46.002Z,52.37
2018-07-01T19:05:15.765Z,53.06
2018-07-01T19:07:45.555Z,53.94
2018-07-01T19:10:15.290Z,54.07
2018-07-01T19:12:45.069Z,54.73
2018-07-01T19:15:14.825Z,55.64
2018-07-01T19:17:44.621Z,56.18
2018-07-01T19:20:14.454Z,57.22
2018-07-01T19:22:44.158Z,57.51
2018-07-01T19:25:13.915Z,58.31
2018-07-01T19:27:43.665Z,58.74
2018-07-01T19:30:13.393Z,59.68
2018-07-01T19:32:43.262Z,59.91
2018-07-01T19:35:13.770Z,61.64
2018-07-01T19:37:43.529Z,62.29
2018-07-01T19:40:13.284Z,63.36
2018-07-01T19:42:43.172Z,64.10
2018-07-01T19:45:13.024Z,64.60
2018-07-01T19:47:42.864Z,65.48
2018-07-01T19:50:12.752Z,66.68
2018-07-01T19:52:42.525Z,67.81
2018-07-01T19:55:12.294Z,68.87
2018-07-01T19:57:42.109Z,69.92
2018-07-01T20:00:11.865Z,70.05
2018-07-01T20:02:41.360Z,71.14
2018-07-01T20:05:11.255Z,71.34
2018-07-01T20:07:41.044Z,72.47
2018-07-01T20:10:10.831Z,72.60
2018-07-01T20:12:40.624Z,72.62
2018-07-01T20:15:10.396Z,73.05
2018-07-01T20:17:40.143Z,74.32
2018-07-01T20:20:09.909Z,74.22
2018-07-01T20:22:39.400Z,74.93
2018-07-01T20:25:09.272Z,75.16
2018-07-01T20:27:39.056Z,75.23
2018-07-01T20:30:08.872Z,75.48
2018-07-01T20:32:38.588Z,75.68
2018-07-01T20:35:08.437Z,75.86
2018-07-01T20:37:38.195Z,75.68
2018-07-01T20:40:07.941Z,75.41
2018-07-01T20:42:37.674Z,75.55
2018-07-01T20:45:07.473Z,76.16
2018-07-01T20:47:37.434Z,75.50
2018-07-01T20:50:07.204Z,76.25
2018-07-01T20:52:36.944Z,75.50
2018-07-01T20:55:06.710Z,75.98
2018-07-01T20:57:36.477Z,75.83
2018-07-01T21:00:06.691Z,75.22
2018-07-01T21:02:36.551Z,75.59
2018-07-01T21:05:07.524Z,75.68
2018-07-01T21:07:37.260Z,74.77
2018-07-01T21:10:07.177Z,75.14
2018-07-01T21:12:36.704Z,75.08
2018-07-01T21:15:06.741Z,75.41
2018-07-01T21:17:36.694Z,75.37
2018-07-01T21:20:06.625Z,76.20
2018-07-01T21:22:36.364Z,76.46
2018-07-01T21:25:06.248Z,76.89
2018-07-01T21:27:35.968Z,76.82
2018-07-01T21:30:06.129Z,77.64
2018-07-01T21:32:36.028Z,76.92
2018-07-01T21:35:05.975Z,77.34
2018-07-01T21:37:35.916Z,77.04
2018-07-01T21:40:06.721Z,78.03
2018-07-01T21:42:39.453Z,78.94
2018-07-01T21:45:09.768Z,79.78
2018-07-01T21:47:39.682Z,79.27
2018-07-01T21:50:09.985Z,80.13
2018-07-01T21:52:39.918Z,79.72
2018-07-01T21:55:10.383Z,80.62
2018-07-01T21:57:40.169Z,80.10
2018-07-01T22:00:10.833Z,80.59
2018-07-01T22:02:40.380Z,81.63
2018-07-01T22:05:10.222Z,81.29
2018-07-01T22:07:40.163Z,82.01
2018-07-01T22:10:10.073Z,81.88
2018-07-01T22:12:51.543Z,82.18
2018-07-01T22:15:32.164Z,82.78
2018-07-01T22:18:01.797Z,82.87
2018-07-01T22:20:31.847Z,83.41
2018-07-01T22:23:01.844Z,83.76
2018-07-01T22:25:31.640Z,84.28
2018-07-01T22:28:01.618Z,84.09
2018-07-01T22:30:31.632Z,84.16
2018-07-01T22:33:01.080Z,84.66
2018-07-01T22:35:30.767Z,85.21
2018-07-01T22:38:00.697Z,85.67
2018-07-01T22:40:30.623Z,85.43
2018-07-01T22:43:00.600Z,85.67
2018-07-01T22:45:30.312Z,86.17
2018-07-01T22:48:00.132Z,87.11
2018-07-01T22:50:30.136Z,87.31
2018-07-01T22:53:00.081Z,87.42
2018-07-01T22:55:29.982Z,87.52
2018-07-01T22:58:00.036Z,87.47
2018-07-01T23:00:29.794Z,88.13
2018-07-01T23:03:11.532Z,87.86
2018-07-01T23:05:40.933Z,88.20
2018-07-01T23:08:10.872Z,87.98
2018-07-01T23:10:40.804Z,88.03
2018-07-01T23:13:11.095Z,88.11
2018-07-01T23:15:41.072Z,86.36
2018-07-01T23:18:10.839Z,85.71
2018-07-01T23:20:40.499Z,85.21
2018-07-01T23:23:10.531Z,83.70
2018-07-01T23:25:40.300Z,84.04
2018-07-01T23:28:10.385Z,83.75
2018-07-01T23:30:40.258Z,83.27
2018-07-01T23:33:10.115Z,83.97
2018-07-01T23:35:40.218Z,84.25
2018-07-01T23:38:10.196Z,84.33
2018-07-01T23:40:40.097Z,85.49
2018-07-01T23:43:10.166Z,85.36
2018-07-01T23:45:40.120Z,85.77
2018-07-01T23:48:10.095Z,86.22
2018-07-01T23:50:39.612Z,86.65
2018-07-01T23:53:09.556Z,87.26
2018-07-01T23:55:39.472Z,87.34
2018-07-01T23:58:09.292Z,87.31
